Time;durP1;ratioP1;P1;durP2;ratioP2;P2;SDS_P1;SDS_P2;PMS_P1;PMS_P2;Temp;Humidity;BMP_temperature;BMP_pressure;BME280_temperature;BME280_humidity;BME280_pressure;Samples;Min_cycle;Max_cycle;Signal;HPM_P1;HPM_P2
2024/01/23 00:00:07;;;;;;;0.40;0.10;;;7.30;99.90;;;;;;5087051;28;20425;-56
2024/01/23 00:02:34;;;;;;;0.30;0.20;;;7.30;99.90;;;;;;5093228;28;20437;-56
2024/01/23 00:05:01;;;;;;;1.00;0.20;;;7.30;99.90;;;;;;5094700;28;20418;-58
2024/01/23 00:07:28;;;;;;;0.90;0.20;;;7.40;99.90;;;;;;5093631;28;20778;-56
2024/01/23 00:09:55;;;;;;;1.30;0.20;;;7.30;99.90;;;;;;5094382;28;20889;-55
2024/01/23 00:12:22;;;;;;;0.50;0.20;;;7.40;99.90;;;;;;5093329;28;20830;-56
2024/01/23 00:14:51;;;;;;;0.50;0.20;;;7.40;99.90;;;;;;5094475;28;20434;-55
2024/01/23 00:17:18;;;;;;;0.50;0.20;;;7.30;99.90;;;;;;5083743;28;20548;-57
2024/01/23 00:19:45;;;;;;;0.60;0.20;;;7.30;99.90;;;;;;5076794;28;20432;-57
2024/01/23 00:22:12;;;;;;;1.00;0.20;;;7.40;99.90;;;;;;5091569;28;20670;-57
2024/01/23 00:24:39;;;;;;;0.50;0.20;;;7.40;99.90;;;;;;5072903;28;20420;-57
2024/01/23 00:27:06;;;;;;;1.20;0.20;;;7.40;99.90;;;;;;5074563;28;20865;-56
2024/01/23 00:29:34;;;;;;;1.90;0.20;;;7.40;99.90;;;;;;5074824;28;20435;-56
2024/01/23 00:32:03;;;;;;;0.70;0.20;;;7.40;99.90;;;;;;5073818;28;20439;-57
2024/01/23 00:34:30;;;;;;;1.60;0.20;;;7.40;99.90;;;;;;5074246;28;20435;-57
2024/01/23 00:36:58;;;;;;;0.40;0.20;;;7.40;99.90;;;;;;5085513;28;20433;-57
2024/01/23 00:39:25;;;;;;;1.45;0.20;;;7.40;99.90;;;;;;5085441;28;20433;-56
2024/01/23 00:41:52;;;;;;;0.50;0.20;;;7.50;99.90;;;;;;5089426;28;20435;-53
2024/01/23 00:44:19;;;;;;;1.92;0.20;;;7.40;99.90;;;;;;5076767;28;20426;-57
2024/01/23 00:46:46;;;;;;;0.90;0.20;;;7.40;99.90;;;;;;5079163;28;20749;-56
2024/01/23 00:49:15;;;;;;;0.50;0.20;;;7.40;99.90;;;;;;5074458;28;20434;-58
2024/01/23 00:51:42;;;;;;;0.95;0.30;;;7.50;99.90;;;;;;5094945;28;20430;-58
2024/01/23 00:54:09;;;;;;;1.10;0.20;;;7.50;99.90;;;;;;5094036;28;20433;-56
2024/01/23 00:56:36;;;;;;;1.38;0.20;;;7.40;99.90;;;;;;5093483;28;20491;-56
2024/01/23 00:59:03;;;;;;;0.50;0.20;;;7.40;99.90;;;;;;5093658;28;20510;-57
2024/01/23 01:01:30;;;;;;;0.35;0.10;;;7.30;99.90;;;;;;5094811;28;20825;-55
2024/01/23 01:03:57;;;;;;;0.90;0.20;;;7.30;99.90;;;;;;5094453;28;20429;-55
2024/01/23 01:06:26;;;;;;;0.95;0.20;;;7.30;99.90;;;;;;5094967;28;20421;-52
2024/01/23 01:08:53;;;;;;;1.20;0.20;;;7.40;99.90;;;;;;5094595;28;20418;-53
2024/01/23 01:11:20;;;;;;;1.80;0.30;;;7.30;99.90;;;;;;5089160;28;20734;-53
2024/01/23 01:13:47;;;;;;;2.20;0.30;;;7.30;99.90;;;;;;5073410;28;20503;-51
2024/01/23 01:16:14;;;;;;;1.50;0.20;;;7.30;99.90;;;;;;5090314;28;20448;-51
2024/01/23 01:18:41;;;;;;;0.70;0.30;;;7.60;99.90;;;;;;5074761;28;20427;-52
2024/01/23 01:21:08;;;;;;;0.43;0.20;;;7.50;99.90;;;;;;5073062;28;20458;-56
2024/01/23 01:23:37;;;;;;;1.40;0.20;;;7.60;99.90;;;;;;5091183;28;20700;-53
2024/01/23 01:26:04;;;;;;;1.30;0.20;;;7.60;99.90;;;;;;5078231;28;20427;-53
2024/01/23 01:28:31;;;;;;;0.40;0.20;;;7.50;99.90;;;;;;5090395;28;20422;-56
2024/01/23 01:30:58;;;;;;;0.50;0.20;;;7.50;99.90;;;;;;5093796;28;21106;-52
2024/01/23 01:33:25;;;;;;;1.75;0.20;;;7.30;99.90;;;;;;5091657;28;21074;-57
2024/01/23 01:35:53;;;;;;;0.60;0.20;;;7.40;99.90;;;;;;5082360;28;20850;-54
2024/01/23 01:38:20;;;;;;;0.90;0.20;;;7.50;99.90;;;;;;5092296;28;20442;-56
2024/01/23 01:40:49;;;;;;;0.80;0.20;;;7.30;99.90;;;;;;5095596;28;20421;-58
2024/01/23 01:43:25;;;;;;;0.90;0.20;;;7.10;99.90;;;;;;5095359;28;20818;-57
2024/01/23 01:46:06;;;;;;;1.00;0.20;;;7.10;99.90;;;;;;5076955;28;20427;-57
2024/01/23 01:48:33;;;;;;;0.50;0.20;;;7.00;99.90;;;;;;5077331;28;20431;-57
2024/01/23 01:51:00;;;;;;;2.55;0.20;;;6.90;99.90;;;;;;5076851;28;20424;-54
2024/01/23 01:53:28;;;;;;;0.40;0.20;;;6.90;99.90;;;;;;5077882;28;20423;-57
2024/01/23 01:55:56;;;;;;;0.82;0.20;;;6.80;99.90;;;;;;5082426;28;20818;-57
2024/01/23 01:58:25;;;;;;;0.60;0.20;;;6.70;99.90;;;;;;5096336;28;20425;-56
2024/01/23 02:00:54;;;;;;;0.63;0.20;;;6.70;99.90;;;;;;5095917;28;20426;-55
2024/01/23 02:03:22;;;;;;;0.50;0.20;;;6.70;99.90;;;;;;5097231;28;20741;-58
2024/01/23 02:05:50;;;;;;;0.80;0.30;;;6.60;99.90;;;;;;5095133;28;20421;-58
2024/01/23 02:08:17;;;;;;;1.10;0.20;;;6.50;99.90;;;;;;5095625;28;20447;-55
2024/01/23 02:10:45;;;;;;;0.85;0.20;;;6.50;99.90;;;;;;5096394;28;20863;-57
2024/01/23 02:13:13;;;;;;;0.90;0.20;;;6.40;99.90;;;;;;5095923;28;20433;-57
2024/01/23 02:15:40;;;;;;;1.80;0.20;;;6.40;99.90;;;;;;5095415;28;20822;-57
2024/01/23 02:18:07;;;;;;;0.47;0.20;;;6.40;99.90;;;;;;5080727;28;20423;-57
2024/01/23 02:20:34;;;;;;;2.30;0.20;;;6.40;99.90;;;;;;5091274;28;20476;-56
2024/01/23 02:23:01;;;;;;;0.55;0.20;;;6.40;99.90;;;;;;5093576;28;20781;-57
2024/01/23 02:25:30;;;;;;;0.95;0.30;;;6.40;99.90;;;;;;5083655;28;20416;-57
2024/01/23 02:27:58;;;;;;;1.50;0.20;;;6.40;99.90;;;;;;5075671;28;20435;-57
2024/01/23 02:30:25;;;;;;;0.50;0.20;;;6.40;99.90;;;;;;5075266;28;20471;-56
2024/01/23 02:32:52;;;;;;;3.22;0.25;;;6.40;99.90;;;;;;5093074;28;20430;-58
2024/01/23 02:35:19;;;;;;;0.80;0.20;;;6.40;99.90;;;;;;5082506;28;20431;-57
2024/01/23 02:37:46;;;;;;;1.00;0.20;;;6.40;99.90;;;;;;5074270;28;20423;-58
2024/01/23 02:40:13;;;;;;;0.93;0.20;;;6.40;99.90;;;;;;5082638;28;20489;-55
2024/01/23 02:42:42;;;;;;;1.30;0.20;;;6.50;99.90;;;;;;5082774;28;20433;-58
2024/01/23 02:45:10;;;;;;;3.00;0.30;;;6.50;99.90;;;;;;5094840;28;20946;-58
2024/01/23 02:47:37;;;;;;;3.50;0.30;;;6.50;99.90;;;;;;5095695;28;20429;-56
2024/01/23 02:50:04;;;;;;;1.80;0.20;;;6.40;99.90;;;;;;5092413;28;20445;-57
2024/01/23 02:52:32;;;;;;;1.58;0.20;;;6.50;99.90;;;;;;5088133;28;20420;-57
2024/01/23 02:54:59;;;;;;;0.70;0.30;;;6.60;99.90;;;;;;5073556;28;20474;-58
2024/01/23 02:57:26;;;;;;;2.92;0.30;;;6.60;99.90;;;;;;5080649;28;20546;-58
2024/01/23 02:59:54;;;;;;;1.83;0.30;;;6.60;99.90;;;;;;5085553;28;20446;-58
2024/01/23 03:02:22;;;;;;;2.00;0.20;;;6.70;99.90;;;;;;5084912;28;20430;-58
2024/01/23 03:04:49;;;;;;;0.90;0.20;;;6.70;99.90;;;;;;5095347;28;20429;-57
2024/01/23 03:07:16;;;;;;;1.85;0.30;;;6.70;99.90;;;;;;5086443;28;20745;-56
2024/01/23 03:09:44;;;;;;;1.70;0.20;;;6.60;99.90;;;;;;5080418;28;20473;-56
2024/01/23 03:12:18;;;;;;;0.60;0.20;;;6.70;99.90;;;;;;5075865;28;20504;-56
2024/01/23 03:14:45;;;;;;;1.73;0.30;;;6.70;99.90;;;;;;5077092;28;20444;-57
2024/01/23 03:17:15;;;;;;;1.75;0.30;;;6.70;99.90;;;;;;5082959;28;20842;-57
2024/01/23 03:19:42;;;;;;;1.10;0.25;;;6.70;99.90;;;;;;5080949;28;20415;-57
2024/01/23 03:22:10;;;;;;;1.70;0.20;;;6.80;99.90;;;;;;5075399;28;20465;-58
2024/01/23 03:24:38;;;;;;;1.98;0.20;;;6.80;99.90;;;;;;5088139;28;20763;-57
2024/01/23 03:27:06;;;;;;;1.40;0.20;;;6.80;99.90;;;;;;5082246;28;20434;-57
2024/01/23 03:29:40;;;;;;;3.30;0.40;;;6.80;99.90;;;;;;5093869;28;20434;-55
2024/01/23 03:32:07;;;;;;;1.70;0.20;;;6.70;99.90;;;;;;5094166;28;20506;-58
2024/01/23 03:34:36;;;;;;;1.80;0.30;;;6.80;99.90;;;;;;5095211;28;20502;-55
2024/01/23 03:37:03;;;;;;;2.30;0.30;;;6.80;99.90;;;;;;5094517;28;20434;-57
2024/01/23 03:39:31;;;;;;;2.45;0.30;;;6.80;99.90;;;;;;5088304;28;20443;-57
2024/01/23 03:41:58;;;;;;;2.40;0.40;;;6.90;99.90;;;;;;5085723;28;20431;-59
2024/01/23 03:44:25;;;;;;;2.57;0.30;;;7.00;99.90;;;;;;5074752;28;20438;-57
2024/01/23 03:46:52;;;;;;;0.70;0.30;;;7.10;99.90;;;;;;5089552;28;20417;-57
2024/01/23 03:49:20;;;;;;;2.60;0.30;;;7.20;99.90;;;;;;5095042;28;20454;-57
2024/01/23 03:51:49;;;;;;;1.80;0.30;;;7.30;99.90;;;;;;5095817;28;20454;-58
2024/01/23 03:54:16;;;;;;;2.20;0.30;;;7.30;99.90;;;;;;5095097;28;20417;-58
2024/01/23 03:56:43;;;;;;;1.10;0.30;;;7.30;99.90;;;;;;5094509;28;20495;-58
2024/01/23 03:59:10;;;;;;;1.70;0.30;;;7.30;99.90;;;;;;5078096;28;20434;-58
2024/01/23 04:01:37;;;;;;;1.73;0.30;;;7.30;99.90;;;;;;5074533;28;20415;-57
2024/01/23 04:04:04;;;;;;;3.00;0.30;;;7.20;99.90;;;;;;5074938;28;20423;-56
2024/01/23 04:06:31;;;;;;;1.20;0.30;;;7.20;99.90;;;;;;5075155;28;20431;-57
2024/01/23 04:09:00;;;;;;;3.03;0.30;;;7.30;99.90;;;;;;5078097;28;20432;-55
2024/01/23 04:11:29;;;;;;;3.30;0.30;;;7.30;99.90;;;;;;5083785;28;20500;-58
2024/01/23 04:13:56;;;;;;;1.45;0.30;;;7.40;99.90;;;;;;5088378;28;20425;-58
2024/01/23 04:16:23;;;;;;;3.00;0.30;;;7.60;99.90;;;;;;5094465;28;20464;-58
2024/01/23 04:18:54;;;;;;;1.02;0.30;;;7.70;99.90;;;;;;5093737;28;20536;-57
2024/01/23 04:21:22;;;;;;;3.17;0.35;;;7.60;99.90;;;;;;5076701;28;20732;-58
2024/01/23 04:23:49;;;;;;;3.60;0.20;;;7.70;99.90;;;;;;5093239;28;20487;-58
2024/01/23 04:26:19;;;;;;;1.20;0.20;;;7.70;99.90;;;;;;5074026;28;20913;-56
2024/01/23 04:28:48;;;;;;;3.50;0.40;;;7.80;99.90;;;;;;5086736;28;20819;-54
2024/01/23 04:31:16;;;;;;;0.98;0.40;;;7.80;99.90;;;;;;5084327;28;20493;-54
2024/01/23 04:33:45;;;;;;;0.68;0.20;;;7.90;99.90;;;;;;5074674;28;20459;-55
2024/01/23 04:36:12;;;;;;;1.60;0.30;;;7.80;99.90;;;;;;5073932;28;20784;-56
2024/01/23 04:38:39;;;;;;;2.30;0.20;;;7.80;99.90;;;;;;5082538;28;20433;-55
2024/01/23 04:41:06;;;;;;;2.10;0.30;;;7.70;1.00;;;;;;5081613;28;20435;-57
2024/01/23 04:43:35;;;;;;;2.70;0.22;;;7.60;1.00;;;;;;5074723;28;20438;-59
2024/01/23 04:46:03;;;;;;;2.50;0.40;;;7.50;1.00;;;;;;5074624;28;20522;-57
2024/01/23 04:48:30;;;;;;;2.00;0.20;;;7.40;1.00;;;;;;5075742;28;20445;-57
2024/01/23 04:50:57;;;;;;;1.70;0.20;;;7.50;1.00;;;;;;5092331;28;20429;-57
2024/01/23 04:53:27;;;;;;;2.90;0.30;;;7.60;1.00;;;;;;5087518;28;20435;-58
2024/01/23 04:55:54;;;;;;;0.65;0.25;;;7.50;1.00;;;;;;5077630;28;20485;-59
2024/01/23 04:58:21;;;;;;;0.90;0.20;;;7.50;1.00;;;;;;5087092;28;20839;-57
2024/01/23 05:00:50;;;;;;;1.20;0.20;;;7.50;1.00;;;;;;5097534;28;20425;-58
2024/01/23 05:03:17;;;;;;;0.70;0.30;;;7.50;1.00;;;;;;5098103;28;20440;-57
2024/01/23 05:05:45;;;;;;;1.40;0.20;;;7.50;1.00;;;;;;5090719;28;20523;-56
2024/01/23 05:08:15;;;;;;;1.58;0.30;;;7.40;1.00;;;;;;5076484;28;20415;-55
2024/01/23 05:10:42;;;;;;;0.47;0.20;;;7.20;1.00;;;;;;5087801;28;20433;-58
2024/01/23 05:13:09;;;;;;;0.70;0.20;;;7.10;1.00;;;;;;5091583;28;20435;-58
2024/01/23 05:15:37;;;;;;;1.23;0.20;;;7.10;1.00;;;;;;5076489;28;20435;-53
2024/01/23 05:18:07;;;;;;;1.60;0.20;;;7.00;1.00;;;;;;5076870;28;20474;-56
2024/01/23 05:20:34;;;;;;;1.48;0.20;;;6.90;1.00;;;;;;5075291;28;20497;-58
2024/01/23 05:23:02;;;;;;;2.20;0.30;;;6.90;1.00;;;;;;5075270;28;20459;-56
2024/01/23 05:25:29;;;;;;;0.70;0.20;;;6.90;1.00;;;;;;5075522;28;20430;-55
2024/01/23 05:27:56;;;;;;;1.48;0.20;;;7.00;4.40;;;;;;5078110;28;20439;-58
2024/01/23 05:30:24;;;;;;;1.60;0.20;;;6.90;1.00;;;;;;5097443;28;20853;-53
2024/01/23 05:32:51;;;;;;;1.30;0.20;;;7.00;26.40;;;;;;5088650;28;20426;-57
2024/01/23 05:35:19;;;;;;;1.90;0.20;;;6.90;35.40;;;;;;5094605;28;20440;-57
2024/01/23 05:37:47;;;;;;;1.25;0.30;;;6.80;35.80;;;;;;5092914;28;20812;-55
2024/01/23 05:40:14;;;;;;;1.08;0.20;;;6.90;40.60;;;;;;5094678;28;20453;-55
2024/01/23 05:42:41;;;;;;;0.63;0.20;;;6.80;49.10;;;;;;5095249;28;20990;-58
2024/01/23 05:45:10;;;;;;;1.20;0.20;;;7.00;38.20;;;;;;5080319;28;20438;-54
2024/01/23 05:47:37;;;;;;;1.00;0.30;;;7.00;15.60;;;;;;5076142;28;20647;-57
2024/01/23 05:50:04;;;;;;;1.08;0.20;;;7.00;1.00;;;;;;5076246;28;20455;-58
2024/01/23 05:52:33;;;;;;;1.00;0.20;;;7.00;1.00;;;;;;5076271;28;20825;-54
2024/01/23 05:55:00;;;;;;;0.50;0.10;;;7.10;1.00;;;;;;5074942;28;21077;-53
2024/01/23 05:57:28;;;;;;;1.42;0.20;;;6.90;1.00;;;;;;5090325;28;20433;-55
2024/01/23 05:59:55;;;;;;;0.65;0.20;;;6.90;1.00;;;;;;5094985;28;20425;-58
2024/01/23 06:02:22;;;;;;;1.10;0.10;;;6.90;1.00;;;;;;5094383;28;20429;-55
2024/01/23 06:04:49;;;;;;;1.02;0.20;;;6.90;1.00;;;;;;5093538;28;20421;-57
2024/01/23 06:07:16;;;;;;;1.30;0.20;;;7.00;1.00;;;;;;5093726;28;20421;-55
2024/01/23 06:09:45;;;;;;;1.00;0.10;;;6.90;1.00;;;;;;5091265;28;20435;-58
2024/01/23 06:12:12;;;;;;;0.47;0.10;;;6.80;1.00;;;;;;5085066;28;20434;-59
2024/01/23 06:14:39;;;;;;;0.40;0.10;;;6.70;7.70;;;;;;5094917;28;20425;-54
2024/01/23 06:17:07;;;;;;;0.68;0.20;;;6.90;8.20;;;;;;5093599;28;20441;-55
2024/01/23 06:19:35;;;;;;;0.50;0.10;;;6.80;1.00;;;;;;5094409;28;20487;-55
2024/01/23 06:22:02;;;;;;;1.30;0.10;;;6.60;7.80;;;;;;5095383;28;20909;-53
2024/01/23 06:24:32;;;;;;;0.40;0.20;;;6.40;12.50;;;;;;5090905;28;20423;-55
2024/01/23 06:27:01;;;;;;;1.10;0.20;;;6.30;28.90;;;;;;5074962;28;20435;-52
2024/01/23 06:29:28;;;;;;;0.40;0.10;;;6.20;49.80;;;;;;5084097;28;20436;-53
2024/01/23 06:31:55;;;;;;;2.53;0.20;;;6.30;77.40;;;;;;5080449;28;20422;-49
2024/01/23 06:34:22;;;;;;;0.73;0.10;;;6.40;99.90;;;;;;5084210;28;20704;-51
2024/01/23 06:36:49;;;;;;;1.10;0.20;;;6.30;99.90;;;;;;5087071;28;20461;-52
2024/01/23 06:39:16;;;;;;;1.20;0.20;;;6.30;99.90;;;;;;5085222;28;20437;-52
2024/01/23 06:41:44;;;;;;;0.43;0.20;;;6.40;99.90;;;;;;5083686;28;20504;-54
2024/01/23 06:44:12;;;;;;;0.60;0.20;;;6.40;99.90;;;;;;5082164;28;20442;-50
2024/01/23 06:46:40;;;;;;;0.57;0.10;;;6.30;99.90;;;;;;5083932;28;20767;-49
2024/01/23 06:49:07;;;;;;;0.90;0.20;;;6.30;99.90;;;;;;5082377;28;20712;-54
2024/01/23 06:51:34;;;;;;;0.40;0.10;;;6.50;99.90;;;;;;5082822;28;20431;-49
2024/01/23 06:54:02;;;;;;;0.60;0.20;;;6.40;99.90;;;;;;5084585;28;20525;-54
2024/01/23 06:56:29;;;;;;;0.70;0.20;;;6.30;99.90;;;;;;5083950;28;20844;-56
2024/01/23 06:58:56;;;;;;;1.80;0.20;;;6.20;38.70;;;;;;5081951;28;20806;-53
2024/01/23 07:01:26;;;;;;;0.40;0.20;;;6.00;59.10;;;;;;5085036;28;20429;-56
2024/01/23 07:03:53;;;;;;;0.90;0.20;;;5.80;86.30;;;;;;5082064;28;20446;-55
2024/01/23 07:06:20;;;;;;;0.47;0.10;;;5.70;99.90;;;;;;5083244;28;20431;-52
2024/01/23 07:08:48;;;;;;;0.50;0.20;;;5.60;99.90;;;;;;5085137;28;20418;-53
2024/01/23 07:11:15;;;;;;;0.50;0.20;;;5.60;99.90;;;;;;5084246;28;20439;-52
2024/01/23 07:13:42;;;;;;;0.50;0.20;;;5.50;99.90;;;;;;5083288;28;20410;-53
2024/01/23 07:16:09;;;;;;;1.80;0.20;;;5.50;99.90;;;;;;5084672;28;20438;-55
2024/01/23 07:18:38;;;;;;;1.30;0.20;;;5.50;99.90;;;;;;5082717;28;20756;-51
2024/01/23 07:21:05;;;;;;;0.30;0.10;;;5.50;99.90;;;;;;5080886;28;20513;-55
2024/01/23 07:23:34;;;;;;;0.60;0.20;;;5.50;99.90;;;;;;5082630;28;20486;-52
2024/01/23 07:26:05;;;;;;;0.70;0.20;;;6.20;99.90;;;;;;5080821;28;20416;-54
2024/01/23 07:28:32;;;;;;;0.90;0.20;;;6.30;99.90;;;;;;5082464;28;20425;-54
2024/01/23 07:30:59;;;;;;;0.50;0.20;;;6.10;32.40;;;;;;5080026;28;20428;-55
2024/01/23 07:33:27;;;;;;;1.10;0.20;;;6.00;27.60;;;;;;5080655;28;20420;-53
2024/01/23 07:35:56;;;;;;;0.70;0.20;;;6.00;67.80;;;;;;5083898;28;20442;-54
2024/01/23 07:38:23;;;;;;;0.40;0.20;;;6.10;84.00;;;;;;5080858;28;20438;-52
2024/01/23 07:40:50;;;;;;;0.40;0.20;;;6.20;48.50;;;;;;5080418;28;20880;-54
2024/01/23 07:43:17;;;;;;;1.83;0.20;;;6.70;24.10;;;;;;5080560;28;20417;-55
2024/01/23 07:45:44;;;;;;;2.78;0.45;;;6.50;1.00;;;;;;5079672;28;20413;-52
2024/01/23 07:48:11;;;;;;;1.30;0.30;;;6.40;1.00;;;;;;5082819;28;20451;-54
2024/01/23 07:50:39;;;;;;;1.30;0.20;;;6.40;1.00;;;;;;5083024;28;20439;-55
2024/01/23 07:53:07;;;;;;;1.60;0.30;;;6.40;1.00;;;;;;5080074;28;20458;-51
2024/01/23 07:55:34;;;;;;;0.50;0.20;;;6.20;1.00;;;;;;5082688;28;20421;-54
2024/01/23 07:58:02;;;;;;;1.15;0.20;;;5.90;1.00;;;;;;5077409;28;20427;-51
2024/01/23 08:00:29;;;;;;;1.30;0.28;;;5.60;33.60;;;;;;5080637;28;20480;-53
2024/01/23 08:02:57;;;;;;;0.97;0.30;;;5.50;82.70;;;;;;5083301;28;20496;-55
2024/01/23 08:05:24;;;;;;;0.50;0.20;;;5.30;99.90;;;;;;5081020;28;20442;-51
2024/01/23 08:07:51;;;;;;;1.60;0.20;;;5.20;99.90;;;;;;5078891;28;20422;-55
2024/01/23 08:10:24;;;;;;;0.80;0.30;;;5.20;99.90;;;;;;5084133;28;20704;-57
2024/01/23 08:12:51;;;;;;;1.35;0.32;;;5.20;99.90;;;;;;5082328;28;20502;-57
2024/01/23 08:15:18;;;;;;;1.48;0.30;;;5.20;99.90;;;;;;5082270;28;20480;-55
2024/01/23 08:17:45;;;;;;;1.60;0.30;;;5.20;99.90;;;;;;5082757;28;20426;-55
2024/01/23 08:20:13;;;;;;;1.10;0.20;;;5.20;99.90;;;;;;5081031;28;20435;-57
2024/01/23 08:22:40;;;;;;;0.70;0.30;;;5.10;99.90;;;;;;5081362;28;20426;-58
2024/01/23 08:25:08;;;;;;;1.20;0.30;;;5.10;99.90;;;;;;5083471;28;20840;-58
2024/01/23 08:27:37;;;;;;;1.00;0.30;;;5.10;99.90;;;;;;5080271;28;20420;-57
2024/01/23 08:30:04;;;;;;;2.00;0.20;;;5.10;99.90;;;;;;5079842;28;20430;-56
2024/01/23 08:32:31;;;;;;;1.30;0.30;;;5.20;99.90;;;;;;5080500;28;20422;-58
2024/01/23 08:34:58;;;;;;;0.60;0.30;;;5.30;99.90;;;;;;5080831;28;20414;-57
2024/01/23 08:37:26;;;;;;;1.30;0.30;;;5.30;99.90;;;;;;5080501;28;20903;-55
2024/01/23 08:39:53;;;;;;;2.50;0.30;;;5.40;99.90;;;;;;5080499;28;20472;-50
2024/01/23 08:42:20;;;;;;;2.65;0.20;;;5.60;99.90;;;;;;5081744;28;20433;-54
2024/01/23 08:44:50;;;;;;;0.50;0.20;;;5.80;99.90;;;;;;5077384;28;20825;-55
2024/01/23 08:47:19;;;;;;;1.55;0.70;;;5.90;99.80;;;;;;5072088;28;20518;-56
2024/01/23 08:49:47;;;;;;;3.40;0.80;;;6.00;58.60;;;;;;5072648;28;20424;-55
2024/01/23 08:52:14;;;;;;;1.75;0.40;;;6.00;43.10;;;;;;5071446;28;20416;-56
2024/01/23 08:54:41;;;;;;;0.95;0.30;;;6.00;36.90;;;;;;5072514;28;20701;-57
2024/01/23 08:57:09;;;;;;;1.20;0.30;;;6.20;30.70;;;;;;5072636;28;21107;-57
2024/01/23 08:59:38;;;;;;;1.52;0.20;;;6.20;4.60;;;;;;5070743;28;20757;-56
2024/01/23 09:02:07;;;;;;;1.40;0.30;;;6.10;1.00;;;;;;5069320;28;20732;-56
2024/01/23 09:04:34;;;;;;;1.65;0.20;;;6.20;1.00;;;;;;5074899;28;20482;-56
2024/01/23 09:07:01;;;;;;;2.50;0.50;;;6.30;1.00;;;;;;5079070;28;20546;-56
2024/01/23 09:09:28;;;;;;;1.10;0.30;;;6.30;1.00;;;;;;5076160;28;20451;-57
2024/01/23 09:11:55;;;;;;;2.10;0.20;;;6.30;1.00;;;;;;5081544;28;20427;-58
2024/01/23 09:14:22;;;;;;;1.10;0.30;;;6.30;1.00;;;;;;5070609;28;20453;-59
2024/01/23 09:16:49;;;;;;;0.95;0.30;;;6.30;1.00;;;;;;5071232;28;20992;-58
2024/01/23 09:19:18;;;;;;;3.50;0.40;;;6.30;1.00;;;;;;5070763;28;20760;-58
2024/01/23 09:21:45;;;;;;;1.10;0.30;;;6.30;1.00;;;;;;5072388;28;20419;-58
2024/01/23 09:24:12;;;;;;;3.45;0.30;;;6.30;8.90;;;;;;5072119;28;20423;-58
2024/01/23 09:26:39;;;;;;;2.00;0.50;;;6.40;1.00;;;;;;5076084;28;20461;-58
2024/01/23 09:29:06;;;;;;;0.80;0.25;;;6.40;6.10;;;;;;5072596;28;21010;-57
2024/01/23 09:31:33;;;;;;;1.40;0.30;;;6.50;1.00;;;;;;5072072;28;20767;-59
2024/01/23 09:34:01;;;;;;;1.00;0.28;;;6.60;1.00;;;;;;5071670;28;20427;-59
2024/01/23 09:36:29;;;;;;;1.70;0.30;;;6.70;1.00;;;;;;5071688;28;21022;-59
2024/01/23 09:38:56;;;;;;;1.30;0.30;;;6.80;1.00;;;;;;5074137;28;20422;-60
2024/01/23 09:41:24;;;;;;;1.38;0.30;;;6.80;1.00;;;;;;5087010;28;20428;-59
2024/01/23 09:43:52;;;;;;;0.93;0.20;;;6.80;1.00;;;;;;5082560;28;20764;-59
2024/01/23 09:46:23;;;;;;;0.30;0.10;;;7.00;1.00;;;;;;5074013;28;20423;-59
2024/01/23 09:48:50;;;;;;;0.70;0.20;;;7.10;1.00;;;;;;5075384;28;20517;-57
2024/01/23 09:51:17;;;;;;;1.30;0.20;;;7.30;1.00;;;;;;5086625;28;20425;-57
2024/01/23 09:53:47;;;;;;;0.47;0.20;;;7.30;1.00;;;;;;5075041;28;20818;-56
2024/01/23 09:56:14;;;;;;;0.40;0.20;;;7.30;1.00;;;;;;5074495;28;20446;-57
2024/01/23 09:58:41;;;;;;;0.85;0.20;;;7.30;1.00;;;;;;5080968;28;20745;-56
2024/01/23 10:01:09;;;;;;;0.60;0.20;;;7.20;1.00;;;;;;5091054;28;20428;-54
2024/01/23 10:03:37;;;;;;;0.98;0.20;;;7.10;1.00;;;;;;5080827;28;20523;-56
2024/01/23 10:06:05;;;;;;;1.20;0.20;;;7.10;1.00;;;;;;5075383;28;20848;-54
2024/01/23 10:08:32;;;;;;;0.80;0.20;;;7.10;1.00;;;;;;5083195;28;20454;-54
2024/01/23 10:11:02;;;;;;;1.25;0.20;;;7.10;1.00;;;;;;5093182;28;20442;-55
2024/01/23 10:13:29;;;;;;;0.80;0.10;;;7.10;1.00;;;;;;5094525;28;20758;-53
2024/01/23 10:15:56;;;;;;;2.65;0.20;;;7.00;1.00;;;;;;5095103;28;20444;-57
2024/01/23 10:18:23;;;;;;;1.60;0.30;;;7.00;1.00;;;;;;5095663;28;20469;-57
2024/01/23 10:20:50;;;;;;;1.10;0.30;;;7.00;1.00;;;;;;5095366;28;20425;-55
2024/01/23 10:23:18;;;;;;;1.30;0.30;;;7.00;1.00;;;;;;5094417;28;20524;-54
2024/01/23 10:25:45;;;;;;;0.60;0.20;;;7.10;1.00;;;;;;5091249;28;20761;-56
2024/01/23 10:28:15;;;;;;;1.30;0.30;;;7.20;1.00;;;;;;5094617;28;20428;-56
2024/01/23 10:30:43;;;;;;;0.65;0.20;;;7.30;1.00;;;;;;5093533;28;20518;-56
2024/01/23 10:33:11;;;;;;;1.90;0.20;;;7.50;1.00;;;;;;5095440;28;20426;-57
2024/01/23 10:35:38;;;;;;;0.70;0.30;;;7.50;1.00;;;;;;5094998;28;20750;-57
2024/01/23 10:38:06;;;;;;;0.60;0.20;;;7.60;1.00;;;;;;5093723;28;20429;-58
2024/01/23 10:40:34;;;;;;;1.10;0.20;;;7.80;1.00;;;;;;5094500;28;20449;-58
2024/01/23 10:43:02;;;;;;;1.85;0.40;;;7.80;1.00;;;;;;5094510;28;20986;-58
2024/01/23 10:45:31;;;;;;;1.95;0.40;;;8.00;1.00;;;;;;5095164;28;20425;-58
2024/01/23 10:48:00;;;;;;;1.03;0.30;;;8.10;1.00;;;;;;5091254;28;20418;-58
2024/01/23 10:50:29;;;;;;;2.80;0.30;;;8.10;99.90;;;;;;5074300;28;20435;-58
2024/01/23 10:53:03;;;;;;;0.77;0.30;;;8.00;99.90;;;;;;5075858;28;20495;-58
2024/01/23 10:55:32;;;;;;;0.70;0.30;;;8.00;99.90;;;;;;5072704;28;20419;-58
2024/01/23 10:58:04;;;;;;;1.20;0.20;;;8.10;99.90;;;;;;5074699;28;20445;-59
2024/01/23 11:00:33;;;;;;;0.68;0.22;;;8.20;99.90;;;;;;5084438;28;20460;-59
2024/01/23 11:03:04;;;;;;;2.10;0.30;;;8.20;99.90;;;;;;5079096;28;20760;-58
2024/01/23 11:05:39;;;;;;;0.50;0.22;;;8.30;99.90;;;;;;5077435;28;20439;-57
2024/01/23 11:08:16;;;;;;;2.30;0.30;;;8.50;1.00;;;;;;5074870;28;20471;-58
2024/01/23 11:10:47;;;;;;;1.60;0.30;;;8.60;1.00;;;;;;5084619;28;20423;-58
2024/01/23 11:13:20;;;;;;;2.00;0.30;;;9.00;1.00;;;;;;5082952;28;20413;-58
2024/01/23 11:15:48;;;;;;;3.63;0.40;;;9.20;1.00;;;;;;5091008;28;20430;-58
2024/01/23 11:18:29;;;;;;;1.17;0.30;;;9.40;1.00;;;;;;5094366;28;20685;-58
2024/01/23 11:21:15;;;;;;;2.47;0.30;;;9.30;1.00;;;;;;5091268;28;20422;-58
2024/01/23 11:23:43;;;;;;;1.40;0.30;;;9.30;99.90;;;;;;5079383;28;20485;-58
2024/01/23 11:26:19;;;;;;;1.00;0.30;;;9.30;1.00;;;;;;5074066;28;20423;-58
2024/01/23 11:28:49;;;;;;;2.45;0.50;;;9.30;1.00;;;;;;5072034;28;20423;-59
2024/01/23 11:31:19;;;;;;;1.08;0.30;;;9.20;99.90;;;;;;5079622;28;20417;-58
2024/01/23 11:33:46;;;;;;;1.80;0.30;;;9.10;99.90;;;;;;5071059;28;20431;-57
2024/01/23 11:36:15;;;;;;;2.47;0.45;;;8.80;1.00;;;;;;5084200;28;20460;-58
2024/01/23 11:38:43;;;;;;;2.50;0.30;;;8.80;1.00;;;;;;5089457;28;20430;-59
2024/01/23 11:41:16;;;;;;;3.03;0.30;;;8.80;1.00;;;;;;5089319;28;20453;-59
2024/01/23 11:43:43;;;;;;;2.10;0.30;;;8.60;1.00;;;;;;5070843;28;20427;-60
2024/01/23 11:46:14;;;;;;;1.05;0.30;;;8.70;1.00;;;;;;5071733;28;20423;-59
2024/01/23 11:48:42;;;;;;;0.70;0.20;;;8.70;99.90;;;;;;5084039;28;20817;-60
2024/01/23 11:51:13;;;;;;;2.17;0.40;;;8.70;99.90;;;;;;5073121;28;20430;-60
2024/01/23 11:53:42;;;;;;;1.60;0.40;;;8.70;99.90;;;;;;5071508;28;20431;-60
2024/01/23 11:56:10;;;;;;;3.15;0.40;;;8.90;99.90;;;;;;5075208;28;20450;-59
2024/01/23 11:58:37;;;;;;;2.20;0.30;;;8.90;99.90;;;;;;5076451;28;20438;-60
2024/01/23 12:01:05;;;;;;;1.30;0.30;;;9.10;99.90;;;;;;5070998;28;20450;-60
2024/01/23 12:03:32;;;;;;;1.30;0.30;;;9.10;99.90;;;;;;5071375;28;20434;-59
2024/01/23 12:06:01;;;;;;;1.80;0.30;;;9.10;99.90;;;;;;5074918;28;20766;-59
2024/01/23 12:08:28;;;;;;;0.80;0.30;;;9.10;99.90;;;;;;5091690;28;20418;-59
2024/01/23 12:10:57;;;;;;;3.10;0.40;;;9.10;99.90;;;;;;5092508;28;20432;-60
2024/01/23 12:13:24;;;;;;;1.60;0.30;;;9.10;99.90;;;;;;5076992;28;20452;-60
2024/01/23 12:15:52;;;;;;;2.13;0.30;;;9.10;99.90;;;;;;5083503;28;20434;-59
2024/01/23 12:18:22;;;;;;;1.70;0.30;;;9.10;99.90;;;;;;5091056;28;20504;-60
2024/01/23 12:20:49;;;;;;;0.98;0.30;;;9.10;99.90;;;;;;5083091;28;20552;-60
2024/01/23 12:23:19;;;;;;;1.40;0.30;;;9.20;99.90;;;;;;5071335;28;20415;-59
2024/01/23 12:25:48;;;;;;;1.40;0.30;;;9.20;99.90;;;;;;5069712;28;20804;-60
2024/01/23 12:28:17;;;;;;;2.70;0.30;;;9.20;99.90;;;;;;5070072;28;20431;-59
2024/01/23 12:30:45;;;;;;;1.30;0.20;;;9.40;99.90;;;;;;5071665;28;20481;-60
2024/01/23 12:33:16;;;;;;;0.60;0.30;;;9.40;99.90;;;;;;5069781;28;20423;-59
2024/01/23 12:35:43;;;;;;;1.05;0.30;;;9.40;99.90;;;;;;5070287;28;20423;-55
2024/01/23 12:38:11;;;;;;;1.85;0.30;;;9.40;99.90;;;;;;5082835;28;20525;-56
2024/01/23 12:40:39;;;;;;;1.00;0.30;;;9.50;99.90;;;;;;5080066;28;20492;-60
2024/01/23 12:43:06;;;;;;;4.90;0.30;;;9.40;99.90;;;;;;5086581;28;20452;-61
2024/01/23 12:45:33;;;;;;;2.42;0.30;;;9.40;99.90;;;;;;5090222;28;20429;-59
2024/01/23 12:48:01;;;;;;;3.20;0.40;;;9.30;99.90;;;;;;5089334;28;20457;-59
2024/01/23 12:50:28;;;;;;;2.20;0.30;;;9.10;99.90;;;;;;5091214;28;20490;-61
2024/01/23 12:52:56;;;;;;;2.03;0.40;;;9.00;99.90;;;;;;5074324;28;20896;-60
2024/01/23 12:55:24;;;;;;;3.00;0.50;;;9.00;99.90;;;;;;5092711;28;20429;-60
2024/01/23 12:57:53;;;;;;;1.25;0.40;;;8.90;99.90;;;;;;5080388;28;20518;-60
2024/01/23 13:00:21;;;;;;;1.10;0.30;;;8.90;99.90;;;;;;5073496;28;20427;-60
2024/01/23 13:02:48;;;;;;;1.10;0.30;;;9.00;99.90;;;;;;5085772;28;20420;-57